createdAt,value
2019-03-31T00:01:12.148Z,6.63
2019-03-31T00:03:43.437Z,6.40
2019-03-31T00:06:13.441Z,6.20
2019-03-31T00:08:43.357Z,6.43
2019-03-31T00:11:43.353Z,6.30
2019-03-31T00:14:18.736Z,5.93
2019-03-31T00:16:47.173Z,5.70
2019-03-31T00:19:15.615Z,5.90
2019-03-31T00:21:45.546Z,6.20
2019-03-31T00:24:14.488Z,5.60
2019-03-31T00:26:52.508Z,5.90
2019-03-31T00:29:21.194Z,5.70
2019-03-31T00:31:49.615Z,6.30
2019-03-31T00:34:36.575Z,6.00
2019-03-31T00:37:25.722Z,6.13
2019-03-31T00:39:54.344Z,5.73
2019-03-31T00:42:22.789Z,6.50
2019-03-31T00:44:51.231Z,5.90
2019-03-31T00:47:25.354Z,6.73
2019-03-31T00:49:53.815Z,6.90
2019-03-31T00:52:39.627Z,6.70
2019-03-31T00:55:26.899Z,5.97
2019-03-31T00:57:55.810Z,6.93
2019-03-31T01:00:27.968Z,6.40
2019-03-31T01:03:01.826Z,7.10
2019-03-31T01:05:49.518Z,7.73
2019-03-31T01:08:46.383Z,7.83
2019-03-31T01:11:19.646Z,7.43
2019-03-31T01:13:50.741Z,6.47
2019-03-31T01:16:19.718Z,7.10
2019-03-31T01:18:48.322Z,6.90
2019-03-31T01:21:16.984Z,7.53
2019-03-31T01:23:45.663Z,6.97
2019-03-31T01:26:18.512Z,7.27
2019-03-31T01:28:46.996Z,7.00
2019-03-31T01:31:15.535Z,6.77
2019-03-31T01:33:55.572Z,6.63
2019-03-31T01:36:24.110Z,6.97
2019-03-31T01:38:52.567Z,6.53
2019-03-31T01:41:21.228Z,6.33
2019-03-31T01:43:49.693Z,6.13
2019-03-31T01:46:20.832Z,6.70
2019-03-31T01:48:49.323Z,6.70
2019-03-31T01:51:17.782Z,6.63
2019-03-31T01:53:46.242Z,6.67
2019-03-31T01:56:16.063Z,7.00
2019-03-31T01:58:46.215Z,6.70
2019-03-31T02:01:18.395Z,6.70
2019-03-31T02:03:46.923Z,7.63
2019-03-31T02:06:21.636Z,6.93
2019-03-31T02:08:50.134Z,8.43
2019-03-31T02:11:19.985Z,8.37
2019-03-31T02:13:48.496Z,7.23
2019-03-31T02:16:17.469Z,8.07
2019-03-31T02:18:46.163Z,7.73
2019-03-31T02:21:26.508Z,8.10
2019-03-31T02:23:54.916Z,8.50
2019-03-31T02:26:23.395Z,7.80
2019-03-31T02:28:51.923Z,8.00
2019-03-31T02:31:20.365Z,8.20
2019-03-31T02:33:50.060Z,9.10
2019-03-31T02:36:18.541Z,8.47
2019-03-31T02:38:47.205Z,7.23
2019-03-31T02:41:15.814Z,7.60
2019-03-31T02:43:44.637Z,7.87
2019-03-31T02:46:14.756Z,8.00
2019-03-31T02:48:44.392Z,7.70
2019-03-31T02:51:17.416Z,8.27
2019-03-31T02:53:45.993Z,8.77
2019-03-31T02:56:17.966Z,8.80
2019-03-31T02:58:58.927Z,8.20
2019-03-31T03:01:38.501Z,8.17
2019-03-31T03:04:20.047Z,8.03
2019-03-31T03:06:51.700Z,7.57
2019-03-31T03:09:32.430Z,8.17
2019-03-31T03:12:09.710Z,8.13
2019-03-31T03:14:42.780Z,8.13
2019-03-31T03:17:24.045Z,8.07
2019-03-31T03:19:52.469Z,9.00
2019-03-31T03:22:25.181Z,8.23
2019-03-31T03:24:53.593Z,8.00
2019-03-31T03:27:22.029Z,9.90
2019-03-31T03:29:50.466Z,8.40
2019-03-31T03:32:19.017Z,8.87
2019-03-31T03:34:47.487Z,9.43
2019-03-31T03:37:16.212Z,8.13
2019-03-31T03:39:45.327Z,8.23
2019-03-31T03:42:15.556Z,8.37
2019-03-31T03:44:44.604Z,8.93
2019-03-31T03:47:39.918Z,8.83
2019-03-31T03:50:13.818Z,7.60
2019-03-31T03:52:45.275Z,8.40
2019-03-31T03:55:14.770Z,8.30
2019-03-31T03:57:45.063Z,9.23
2019-03-31T04:00:15.562Z,8.73
2019-03-31T04:02:50.452Z,8.23
2019-03-31T04:05:18.957Z,8.93
2019-03-31T04:07:47.422Z,8.63
2019-03-31T04:10:45.111Z,9.10
2019-03-31T04:13:15.742Z,9.07
2019-03-31T04:15:44.819Z,9.70
2019-03-31T04:18:15.747Z,9.77
2019-03-31T04:20:46.190Z,8.40
2019-03-31T04:23:15.755Z,10.20
2019-03-31T04:26:08.775Z,9.60
2019-03-31T04:28:44.271Z,9.70
2019-03-31T04:31:23.859Z,10.27
2019-03-31T04:33:57.362Z,9.47
2019-03-31T04:36:25.818Z,9.23
2019-03-31T04:38:54.338Z,10.07
2019-03-31T04:41:22.927Z,10.07
2019-03-31T04:43:51.394Z,10.37
2019-03-31T04:46:19.856Z,10.50
2019-03-31T04:48:51.488Z,10.23
2019-03-31T04:51:19.981Z,10.33
2019-03-31T04:53:56.084Z,10.67
2019-03-31T04:56:24.808Z,10.53
2019-03-31T04:58:53.258Z,9.43
2019-03-31T05:01:21.755Z,10.57
2019-03-31T05:04:04.026Z,10.43
2019-03-31T05:06:20.344Z,10.63
2019-03-31T05:08:52.728Z,10.83
2019-03-31T05:11:21.171Z,10.93
2019-03-31T05:13:49.604Z,10.70
2019-03-31T05:16:18.045Z,10.73
2019-03-31T05:18:46.487Z,10.83
2019-03-31T05:21:15.872Z,10.60
2019-03-31T05:23:45.889Z,10.67
2019-03-31T05:29:21.888Z,10.57
2019-03-31T05:31:50.334Z,10.63
2019-03-31T05:34:19.686Z,10.37
2019-03-31T05:36:48.319Z,10.73
2019-03-31T05:39:25.880Z,10.43
2019-03-31T05:41:54.379Z,9.93
2019-03-31T05:44:22.803Z,10.67
2019-03-31T05:47:11.764Z,9.73
2019-03-31T05:49:52.580Z,10.30
2019-03-31T05:52:21.051Z,9.57
2019-03-31T05:54:49.600Z,9.40
2019-03-31T05:57:18.192Z,10.07
2019-03-31T05:59:46.652Z,9.70
2019-03-31T06:02:15.954Z,9.23
2019-03-31T06:04:45.091Z,9.90
2019-03-31T06:07:15.772Z,9.33
2019-03-31T06:09:45.298Z,10.00
2019-03-31T06:12:14.740Z,9.50
2019-03-31T06:14:46.210Z,8.93
2019-03-31T06:17:15.652Z,9.50
2019-03-31T06:19:44.340Z,8.60
2019-03-31T06:22:14.099Z,8.90
2019-03-31T06:25:10.685Z,8.03
2019-03-31T06:27:44.665Z,7.77
2019-03-31T06:30:26.917Z,8.70
2019-03-31T06:32:56.388Z,9.00
2019-03-31T06:35:25.082Z,8.70
2019-03-31T06:37:53.514Z,8.53
2019-03-31T06:40:21.957Z,8.90
2019-03-31T06:42:50.736Z,10.33
2019-03-31T06:45:32.587Z,10.37
2019-03-31T06:48:00.203Z,10.03
2019-03-31T06:50:28.625Z,8.70
2019-03-31T06:52:57.303Z,8.67
2019-03-31T06:55:25.729Z,9.20
2019-03-31T06:57:54.265Z,8.50
2019-03-31T07:00:23.713Z,8.50
2019-03-31T07:03:18.196Z,7.37
2019-03-31T07:05:48.638Z,7.70
2019-03-31T07:08:27.441Z,8.50
2019-03-31T07:10:56.034Z,6.97
2019-03-31T07:13:30.279Z,7.67
2019-03-31T07:16:18.460Z,7.17
2019-03-31T07:18:47.795Z,7.43
2019-03-31T07:21:21.455Z,7.50
2019-03-31T07:23:49.900Z,7.10
2019-03-31T07:26:20.545Z,7.73
2019-03-31T07:28:49.009Z,7.27
2019-03-31T07:31:17.456Z,7.03
2019-03-31T07:33:51.858Z,8.13
2019-03-31T07:36:26.532Z,7.63
2019-03-31T07:38:59.142Z,7.50
2019-03-31T07:41:36.209Z,8.43
2019-03-31T07:46:57.099Z,6.80
2019-03-31T07:49:25.610Z,6.37
2019-03-31T07:52:04.598Z,6.23
2019-03-31T07:54:32.730Z,6.70
2019-03-31T07:57:09.446Z,6.60
2019-03-31T07:59:56.418Z,5.80
2019-03-31T08:02:25.092Z,6.07
2019-03-31T08:04:53.713Z,5.97
2019-03-31T08:07:22.323Z,5.80
2019-03-31T08:09:51.679Z,5.87
2019-03-31T08:12:20.407Z,6.07
2019-03-31T08:14:53.888Z,5.50
2019-03-31T08:17:22.720Z,5.93
2019-03-31T08:19:52.868Z,5.50
2019-03-31T08:22:22.058Z,5.87
2019-03-31T08:24:51.287Z,5.90
2019-03-31T08:27:21.194Z,6.00
2019-03-31T08:30:00.196Z,6.13
2019-03-31T08:32:21.123Z,5.43
2019-03-31T08:34:50.789Z,5.70
2019-03-31T08:37:20.078Z,6.27
2019-03-31T08:39:51.063Z,5.30
2019-03-31T08:42:21.441Z,5.90
2019-03-31T08:44:51.752Z,5.57
2019-03-31T08:47:21.207Z,5.80
2019-03-31T08:49:51.253Z,5.50
2019-03-31T08:52:20.712Z,6.00
2019-03-31T08:54:49.616Z,5.80
2019-03-31T08:57:20.246Z,5.93
2019-03-31T08:59:50.938Z,6.23
2019-03-31T09:02:40.435Z,6.20
2019-03-31T09:05:20.026Z,6.10
2019-03-31T09:07:53.919Z,5.90
2019-03-31T09:10:22.416Z,6.30
2019-03-31T09:12:50.906Z,6.00
2019-03-31T09:15:19.368Z,6.03
2019-03-31T09:17:47.807Z,6.13
2019-03-31T09:23:13.442Z,6.07
2019-03-31T09:25:47.666Z,5.77
2019-03-31T09:28:17.202Z,6.27
2019-03-31T09:30:46.377Z,6.10
2019-03-31T09:33:17.019Z,6.50
2019-03-31T09:36:15.040Z,6.53
2019-03-31T09:38:43.674Z,5.93
2019-03-31T09:41:31.804Z,6.17
2019-03-31T09:44:10.570Z,6.00
2019-03-31T09:46:45.480Z,5.20
2019-03-31T09:49:29.529Z,5.70
2019-03-31T09:52:14.483Z,5.80
2019-03-31T09:54:45.365Z,6.03
2019-03-31T09:57:34.629Z,6.33
2019-03-31T10:00:04.788Z,5.97
2019-03-31T10:02:44.287Z,6.10
2019-03-31T10:05:25.661Z,5.83
2019-03-31T10:07:54.233Z,5.17
2019-03-31T10:10:47.712Z,4.07
2019-03-31T10:13:16.587Z,5.47
2019-03-31T10:15:45.869Z,4.70
2019-03-31T10:18:17.955Z,4.73
2019-03-31T10:20:46.079Z,3.83
2019-03-31T10:23:15.872Z,4.20
2019-03-31T10:25:46.873Z,3.77
2019-03-31T10:28:16.321Z,3.63
2019-03-31T10:30:45.589Z,3.50
2019-03-31T10:33:16.011Z,3.17
2019-03-31T10:35:57.067Z,3.33
2019-03-31T10:38:26.285Z,3.10
2019-03-31T10:40:54.730Z,3.40
2019-03-31T10:43:23.143Z,2.83
2019-03-31T10:45:51.585Z,3.60
2019-03-31T10:48:21.282Z,3.80
2019-03-31T10:50:49.930Z,3.23
2019-03-31T10:53:18.420Z,3.67
2019-03-31T10:55:46.871Z,3.20
2019-03-31T10:58:17.043Z,3.47
2019-03-31T11:00:46.929Z,3.13
2019-03-31T11:03:44.911Z,2.97
2019-03-31T11:06:35.950Z,2.87
2019-03-31T11:09:24.331Z,3.10
2019-03-31T11:11:53.293Z,3.03
2019-03-31T11:14:21.711Z,3.50
2019-03-31T11:16:50.184Z,3.30
2019-03-31T11:19:18.620Z,3.30
2019-03-31T11:21:51.159Z,3.10
2019-03-31T11:24:19.592Z,3.40
2019-03-31T11:26:48.061Z,3.20
2019-03-31T11:29:17.897Z,3.00
2019-03-31T11:37:52.190Z,3.17
2019-03-31T11:40:20.649Z,2.63
2019-03-31T11:42:49.080Z,3.13
2019-03-31T11:45:18.272Z,3.20
2019-03-31T11:47:47.116Z,3.70
2019-03-31T11:50:15.892Z,2.93
2019-03-31T11:52:45.206Z,2.90
2019-03-31T11:55:24.769Z,3.13
2019-03-31T11:57:53.662Z,3.33
2019-03-31T12:00:24.275Z,2.97
2019-03-31T12:02:52.710Z,2.70
2019-03-31T12:05:21.212Z,2.73
2019-03-31T12:07:49.663Z,2.97
2019-03-31T12:10:20.071Z,2.90
2019-03-31T12:12:49.770Z,3.23
2019-03-31T12:15:18.231Z,3.53
2019-03-31T12:17:53.677Z,3.03
2019-03-31T12:20:22.202Z,2.80
2019-03-31T12:22:50.658Z,3.00
2019-03-31T12:25:20.041Z,2.70
2019-03-31T12:27:48.612Z,2.90
2019-03-31T12:30:20.099Z,2.63
2019-03-31T12:32:48.556Z,2.90
2019-03-31T12:35:16.992Z,2.77
2019-03-31T12:37:45.521Z,3.17
2019-03-31T12:40:17.052Z,3.00
2019-03-31T12:42:49.666Z,3.00
2019-03-31T12:45:18.331Z,2.97
2019-03-31T12:47:46.784Z,3.13
2019-03-31T12:50:15.447Z,2.87
2019-03-31T12:52:49.456Z,3.10
2019-03-31T12:55:16.558Z,3.10
2019-03-31T12:57:45.924Z,3.20
2019-03-31T13:00:15.112Z,2.80
2019-03-31T13:02:45.936Z,3.40
2019-03-31T13:05:15.252Z,3.60
2019-03-31T13:07:55.654Z,3.23
2019-03-31T13:10:15.365Z,3.50
2019-03-31T13:12:45.097Z,3.20
2019-03-31T13:15:15.409Z,3.10
2019-03-31T13:17:45.241Z,3.03
2019-03-31T13:20:15.865Z,2.80
2019-03-31T13:22:45.982Z,3.53
2019-03-31T13:25:15.656Z,3.07
2019-03-31T13:27:45.045Z,3.87
2019-03-31T13:30:16.535Z,3.00
2019-03-31T13:32:45.323Z,2.90
2019-03-31T13:35:15.267Z,2.90
2019-03-31T13:38:11.426Z,3.20
2019-03-31T13:40:42.427Z,3.03
2019-03-31T13:43:12.517Z,3.17
2019-03-31T13:45:44.196Z,3.70
2019-03-31T13:48:15.221Z,3.60
2019-03-31T13:50:46.077Z,3.17
2019-03-31T13:53:16.424Z,3.27
2019-03-31T13:55:46.701Z,3.43
2019-03-31T13:58:15.645Z,3.47
2019-03-31T14:00:45.296Z,3.00
2019-03-31T14:03:14.822Z,3.53
2019-03-31T14:05:44.612Z,3.13
2019-03-31T14:08:25.452Z,3.40
2019-03-31T14:10:49.923Z,2.50
2019-03-31T14:13:19.072Z,3.27
2019-03-31T14:15:50.241Z,3.23
2019-03-31T14:18:20.783Z,3.30
2019-03-31T14:20:49.955Z,3.00
2019-03-31T14:23:19.963Z,3.33
2019-03-31T14:26:13.568Z,2.70
2019-03-31T14:28:45.884Z,2.87
2019-03-31T14:31:15.295Z,2.90
2019-03-31T14:33:52.867Z,2.40
2019-03-31T14:36:21.053Z,3.03
2019-03-31T14:38:52.151Z,3.23
2019-03-31T14:41:20.755Z,3.10
2019-03-31T14:43:50.106Z,3.33
2019-03-31T14:46:20.075Z,3.57
2019-03-31T14:48:51.393Z,2.90
2019-03-31T14:51:19.834Z,3.77
2019-03-31T14:53:48.548Z,3.30
2019-03-31T14:56:16.982Z,3.37
2019-03-31T14:58:46.112Z,3.30
2019-03-31T15:01:15.082Z,3.60
2019-03-31T15:03:54.896Z,3.47
2019-03-31T15:06:25.822Z,3.43
2019-03-31T15:08:59.570Z,3.50
2019-03-31T15:11:28.233Z,3.30
2019-03-31T15:13:56.685Z,3.30
2019-03-31T15:16:25.149Z,3.47
2019-03-31T15:18:54.011Z,3.30
2019-03-31T15:21:22.562Z,3.67
2019-03-31T15:23:50.982Z,3.60
2019-03-31T15:26:19.543Z,3.57
2019-03-31T15:28:48.097Z,3.47
2019-03-31T15:31:17.491Z,3.40
2019-03-31T15:33:45.923Z,3.57
2019-03-31T15:36:17.530Z,3.77
2019-03-31T15:38:48.169Z,3.50
2019-03-31T15:41:21.235Z,3.50
2019-03-31T15:43:47.531Z,3.40
2019-03-31T15:46:16.516Z,3.87
2019-03-31T15:48:48.166Z,4.17
2019-03-31T15:51:18.315Z,4.03
2019-03-31T15:53:46.813Z,4.30
2019-03-31T15:56:18.975Z,3.97
2019-03-31T15:58:47.440Z,3.97
2019-03-31T16:01:16.492Z,3.83
2019-03-31T16:03:49.348Z,3.17
2019-03-31T16:06:21.871Z,3.90
2019-03-31T16:08:59.269Z,3.30
2019-03-31T16:11:29.181Z,3.30
2019-03-31T16:14:04.961Z,3.80
2019-03-31T16:16:31.787Z,3.23
2019-03-31T16:19:00.805Z,3.20
2019-03-31T16:21:29.393Z,3.23
2019-03-31T16:23:57.885Z,3.13
2019-03-31T16:26:26.338Z,3.70
2019-03-31T16:28:54.898Z,3.97
2019-03-31T16:31:23.306Z,3.57
2019-03-31T16:33:52.006Z,3.90
2019-03-31T16:36:22.383Z,3.77
2019-03-31T16:38:50.887Z,3.23
2019-03-31T16:41:19.456Z,3.43
2019-03-31T16:43:48.552Z,3.87
2019-03-31T16:46:17.547Z,3.20
2019-03-31T16:48:47.250Z,3.87
2019-03-31T16:51:19.453Z,3.87
2019-03-31T16:53:48.636Z,3.60
2019-03-31T16:56:17.269Z,3.40
2019-03-31T16:58:46.246Z,3.47
2019-03-31T17:01:17.681Z,3.90
2019-03-31T17:03:48.032Z,3.80
2019-03-31T17:06:17.236Z,3.77
2019-03-31T17:08:47.739Z,3.80
2019-03-31T17:11:19.263Z,3.43
2019-03-31T17:13:47.791Z,3.53
2019-03-31T17:16:17.427Z,3.83
2019-03-31T17:18:46.210Z,3.40
2019-03-31T17:21:16.096Z,3.60
2019-03-31T17:24:18.617Z,3.80
2019-03-31T17:26:47.057Z,4.70
2019-03-31T17:29:15.557Z,4.10
2019-03-31T17:31:45.585Z,4.40
2019-03-31T17:34:16.533Z,4.50
2019-03-31T17:36:46.511Z,4.40
2019-03-31T17:39:16.148Z,3.30
2019-03-31T17:41:45.463Z,5.53
2019-03-31T17:44:15.341Z,6.60
2019-03-31T17:46:46.072Z,5.27
2019-03-31T17:49:15.819Z,5.90
2019-03-31T17:51:44.453Z,7.03
2019-03-31T17:54:14.337Z,8.63
2019-03-31T17:56:43.947Z,9.00
2019-03-31T17:59:15.473Z,11.50
2019-03-31T18:01:44.321Z,15.30
2019-03-31T18:04:13.158Z,14.80
2019-03-31T18:06:43.224Z,11.10
2019-03-31T18:09:12.573Z,11.97
2019-03-31T18:11:41.795Z,11.40
2019-03-31T18:14:12.172Z,12.93
2019-03-31T18:16:41.782Z,12.83
2019-03-31T18:19:11.015Z,11.33
2019-03-31T18:21:41.599Z,12.97
2019-03-31T18:24:13.923Z,12.43
2019-03-31T18:26:44.032Z,11.17
2019-03-31T18:29:13.629Z,13.93
2019-03-31T18:31:43.271Z,14.37
2019-03-31T18:34:12.339Z,14.33
2019-03-31T18:36:41.905Z,15.63
2019-03-31T18:39:35.256Z,15.23
2019-03-31T18:42:08.254Z,12.97
2019-03-31T18:44:39.890Z,15.50
2019-03-31T18:47:10.352Z,15.00
2019-03-31T18:49:40.351Z,15.20
2019-03-31T18:52:28.212Z,12.07
2019-03-31T18:55:04.482Z,14.90
2019-03-31T18:57:39.444Z,13.70
2019-03-31T19:00:12.102Z,16.50
2019-03-31T19:02:46.154Z,11.17
2019-03-31T19:05:25.652Z,14.47
2019-03-31T19:07:59.223Z,17.03
2019-03-31T19:10:49.697Z,16.93
2019-03-31T19:13:18.197Z,16.83
2019-03-31T19:16:28.344Z,18.13
2019-03-31T19:18:58.510Z,9.93
2019-03-31T19:21:31.578Z,16.43
2019-03-31T19:24:05.702Z,16.60
2019-03-31T19:26:48.675Z,16.33
2019-03-31T19:29:30.415Z,20.10
2019-03-31T19:32:03.588Z,14.53
2019-03-31T19:34:51.743Z,19.70
2019-03-31T19:37:27.694Z,20.23
2019-03-31T19:40:13.271Z,19.07
2019-03-31T19:45:21.715Z,20.07
2019-03-31T19:47:51.808Z,22.10
2019-03-31T19:50:31.505Z,21.83
2019-03-31T19:53:08.506Z,20.17
2019-03-31T19:55:42.563Z,21.67
2019-03-31T19:58:16.989Z,22.17
2019-03-31T20:00:58.411Z,20.77
2019-03-31T20:03:34.222Z,22.80
2019-03-31T20:06:24.391Z,22.33
2019-03-31T20:09:11.821Z,23.57
2019-03-31T20:11:48.148Z,20.53
2019-03-31T20:14:31.888Z,22.47
2019-03-31T20:17:39.274Z,23.17
2019-03-31T20:20:12.773Z,23.17
2019-03-31T20:22:54.124Z,21.50
2019-03-31T20:25:24.227Z,21.93
2019-03-31T20:28:10.469Z,22.93
2019-03-31T20:30:46.559Z,22.77
2019-03-31T20:33:18.069Z,22.70
2019-03-31T20:35:57.743Z,22.97
2019-03-31T20:38:27.893Z,22.53
2019-03-31T20:40:57.960Z,22.97
2019-03-31T20:43:28.242Z,23.33
2019-03-31T20:46:08.865Z,22.10
2019-03-31T20:48:39.257Z,23.20
2019-03-31T20:51:08.915Z,22.97
2019-03-31T20:53:39.031Z,22.93
2019-03-31T20:59:24.711Z,21.80
2019-03-31T21:01:53.302Z,23.47
2019-03-31T21:04:21.784Z,20.93
2019-03-31T21:06:50.190Z,19.70
2019-03-31T21:09:21.708Z,20.67
2019-03-31T21:11:50.122Z,21.17
2019-03-31T21:14:18.597Z,22.07
2019-03-31T21:17:13.380Z,21.30
2019-03-31T21:20:06.048Z,21.63
2019-03-31T21:22:41.182Z,18.97
2019-03-31T21:25:13.872Z,19.93
2019-03-31T21:27:45.142Z,17.63
2019-03-31T21:30:15.110Z,20.80
2019-03-31T21:32:45.044Z,13.93
2019-03-31T21:35:13.826Z,19.67
2019-03-31T21:38:03.865Z,20.00
2019-03-31T21:43:40.625Z,18.63
2019-03-31T21:46:13.596Z,18.23
2019-03-31T21:48:43.748Z,18.10
2019-03-31T21:51:36.337Z,18.47
2019-03-31T21:54:16.316Z,18.33
2019-03-31T21:59:47.111Z,15.17
2019-03-31T22:02:17.017Z,17.10
2019-03-31T22:04:45.658Z,15.90
2019-03-31T22:07:15.612Z,16.83
2019-03-31T22:09:46.188Z,15.77
2019-03-31T22:12:14.792Z,15.03
2019-03-31T22:14:44.275Z,14.70
2019-03-31T22:17:14.000Z,12.17
2019-03-31T22:19:43.159Z,15.47
2019-03-31T22:22:14.134Z,12.70
2019-03-31T22:24:48.922Z,15.97
2019-03-31T22:27:17.727Z,14.67
2019-03-31T22:29:46.143Z,12.27
2019-03-31T22:32:15.490Z,13.83
2019-03-31T22:34:44.588Z,14.23
2019-03-31T22:37:14.218Z,13.77
2019-03-31T22:39:44.356Z,13.83
2019-03-31T22:42:49.743Z,14.07
2019-03-31T22:45:18.390Z,13.00
2019-03-31T22:48:06.625Z,14.50
2019-03-31T22:50:40.240Z,12.90
2019-03-31T22:53:12.662Z,13.20
2019-03-31T22:55:42.988Z,14.10
2019-03-31T22:58:35.543Z,12.27
2019-03-31T23:01:09.265Z,14.30
2019-03-31T23:03:44.950Z,12.80
2019-03-31T23:06:14.008Z,13.97
2019-03-31T23:08:55.621Z,11.97
2019-03-31T23:11:24.059Z,10.93
2019-03-31T23:13:52.729Z,9.57
2019-03-31T23:16:21.154Z,14.47
2019-03-31T23:18:49.564Z,12.90
2019-03-31T23:21:18.004Z,13.10
2019-03-31T23:23:46.448Z,13.97
2019-03-31T23:26:15.652Z,14.00
2019-03-31T23:28:48.449Z,10.10
2019-03-31T23:31:17.314Z,14.27
2019-03-31T23:34:04.871Z,14.10
2019-03-31T23:36:33.410Z,14.37
2019-03-31T23:39:01.925Z,13.03
2019-03-31T23:41:30.472Z,13.73
2019-03-31T23:43:58.908Z,14.03
2019-03-31T23:46:27.343Z,13.97
2019-03-31T23:48:55.802Z,11.90
2019-03-31T23:51:24.247Z,13.67
2019-03-31T23:53:52.715Z,13.40
2019-03-31T23:56:21.163Z,14.40
2019-03-31T23:58:49.697Z,13.93
